createdAt,value
2022-08-21T00:00:28.601Z,36.39
2022-08-21T00:03:03.146Z,36.79
2022-08-21T00:05:31.622Z,37.29
2022-08-21T00:07:58.947Z,37.24
2022-08-21T00:10:26.895Z,37.19
2022-08-21T00:12:54.030Z,36.67
2022-08-21T00:15:30.033Z,36.66
2022-08-21T00:17:58.410Z,37.24
2022-08-21T00:20:26.255Z,36.77
2022-08-21T00:22:53.708Z,36.86
2022-08-21T00:25:24.323Z,37.01
2022-08-21T00:27:53.866Z,37.00
2022-08-21T00:30:23.486Z,37.21
2022-08-21T00:32:52.257Z,37.07
2022-08-21T00:35:23.611Z,36.88
2022-08-21T00:37:50.731Z,37.42
2022-08-21T00:40:28.088Z,37.24
2022-08-21T00:42:55.592Z,37.39
2022-08-21T00:45:24.052Z,37.13
2022-08-21T00:47:52.943Z,37.17
2022-08-21T00:50:22.303Z,37.18
2022-08-21T00:52:52.265Z,37.26
2022-08-21T00:55:23.589Z,37.04
2022-08-21T00:57:54.307Z,37.27
2022-08-21T01:00:26.388Z,37.44
2022-08-21T01:02:53.399Z,37.40
2022-08-21T01:05:21.192Z,37.18
2022-08-21T01:07:48.537Z,37.61
2022-08-21T01:10:23.823Z,37.51
2022-08-21T01:12:53.345Z,37.35
2022-08-21T01:15:21.792Z,37.46
2022-08-21T01:17:50.408Z,37.70
2022-08-21T01:20:17.830Z,37.21
2022-08-21T01:22:45.036Z,38.18
2022-08-21T01:25:16.171Z,38.09
2022-08-21T01:27:44.016Z,37.69
2022-08-21T01:30:34.157Z,37.70
2022-08-21T01:33:01.849Z,38.21
2022-08-21T01:35:29.008Z,38.50
2022-08-21T01:37:56.195Z,39.06
2022-08-21T01:40:23.416Z,38.19
2022-08-21T01:42:50.650Z,38.75
2022-08-21T01:45:18.062Z,38.19
2022-08-21T01:47:46.688Z,37.88
2022-08-21T01:50:17.170Z,38.08
2022-08-21T01:52:44.437Z,38.09
2022-08-21T01:55:13.415Z,37.99
2022-08-21T01:57:40.635Z,38.20
2022-08-21T02:00:12.455Z,38.33
2022-08-21T02:02:42.042Z,38.30
2022-08-21T02:05:11.858Z,38.49
2022-08-21T02:07:45.077Z,38.53
2022-08-21T02:10:15.128Z,38.61
2022-08-21T02:12:42.299Z,38.79
2022-08-21T02:15:30.719Z,38.73
2022-08-21T02:18:01.279Z,39.01
2022-08-21T02:20:33.269Z,38.93
2022-08-21T02:23:01.376Z,39.92
2022-08-21T02:25:29.648Z,38.93
2022-08-21T02:27:56.716Z,39.29
2022-08-21T02:30:30.351Z,38.81
2022-08-21T02:32:58.091Z,38.76
2022-08-21T02:35:25.774Z,39.60
2022-08-21T02:38:01.488Z,39.74
2022-08-21T02:40:34.494Z,39.80
2022-08-21T02:43:03.070Z,39.79
2022-08-21T02:45:30.689Z,39.30
2022-08-21T02:48:00.822Z,39.20
2022-08-21T02:50:37.744Z,38.99
2022-08-21T02:53:07.104Z,39.04
2022-08-21T02:55:37.149Z,38.92
2022-08-21T02:58:06.687Z,39.04
2022-08-21T03:00:36.257Z,39.01
2022-08-21T03:03:06.002Z,38.99
2022-08-21T03:05:34.718Z,39.06
2022-08-21T03:08:03.994Z,39.13
2022-08-21T03:10:32.227Z,38.96
2022-08-21T03:12:59.444Z,38.82
2022-08-21T03:15:26.623Z,38.84
2022-08-21T03:17:55.686Z,39.45
2022-08-21T03:20:29.717Z,38.92
2022-08-21T03:22:57.334Z,39.01
2022-08-21T03:25:37.985Z,39.11
2022-08-21T03:28:13.038Z,38.88
2022-08-21T03:30:44.861Z,38.64
2022-08-21T03:33:15.573Z,38.84
2022-08-21T03:35:48.804Z,38.51
2022-08-21T03:38:15.951Z,38.56
2022-08-21T03:40:44.487Z,38.63
2022-08-21T03:43:12.238Z,38.34
2022-08-21T03:45:40.293Z,38.52
2022-08-21T03:48:08.872Z,38.43
2022-08-21T03:50:41.180Z,38.17
2022-08-21T03:53:16.469Z,39.12
2022-08-21T03:55:47.821Z,38.81
2022-08-21T03:58:18.202Z,38.70
2022-08-21T04:00:47.588Z,37.89
2022-08-21T04:03:14.721Z,39.06
2022-08-21T04:05:42.155Z,38.36
2022-08-21T04:08:09.479Z,38.14
2022-08-21T04:10:38.477Z,38.13
2022-08-21T04:13:07.124Z,38.24
2022-08-21T04:15:35.026Z,39.00
2022-08-21T04:18:02.452Z,39.88
2022-08-21T04:20:29.594Z,38.01
2022-08-21T04:22:57.669Z,38.25
2022-08-21T04:25:26.561Z,37.49
2022-08-21T04:27:54.220Z,38.29
2022-08-21T04:30:22.071Z,37.41
2022-08-21T04:32:58.166Z,37.71
2022-08-21T04:35:27.680Z,37.91
2022-08-21T04:37:54.840Z,37.39
2022-08-21T04:40:25.315Z,37.27
2022-08-21T04:42:57.584Z,36.97
2022-08-21T04:45:26.969Z,36.82
2022-08-21T04:47:56.787Z,37.13
2022-08-21T04:50:28.935Z,37.27
2022-08-21T04:53:07.594Z,37.37
2022-08-21T04:55:35.112Z,36.67
2022-08-21T04:58:02.538Z,36.71
2022-08-21T05:00:29.828Z,36.89
2022-08-21T05:03:00.429Z,36.73
2022-08-21T05:05:30.255Z,36.71
2022-08-21T05:08:00.410Z,37.13
2022-08-21T05:10:28.201Z,36.76
2022-08-21T05:12:56.710Z,36.68
2022-08-21T05:15:23.959Z,37.15
2022-08-21T05:17:53.755Z,36.19
2022-08-21T05:20:27.920Z,36.21
2022-08-21T05:22:55.189Z,36.56
2022-08-21T05:25:23.837Z,35.90
2022-08-21T05:27:52.315Z,35.74
2022-08-21T05:30:21.188Z,35.79
2022-08-21T05:32:48.941Z,35.07
2022-08-21T05:35:16.366Z,35.19
2022-08-21T05:37:43.364Z,34.47
2022-08-21T05:40:22.786Z,34.97
2022-08-21T05:42:55.630Z,34.66
2022-08-21T05:45:42.138Z,34.38
2022-08-21T05:48:12.745Z,34.55
2022-08-21T05:50:39.901Z,34.13
2022-08-21T05:53:08.097Z,36.03
2022-08-21T05:55:41.398Z,34.16
2022-08-21T05:58:12.356Z,33.47
2022-08-21T06:00:39.586Z,33.51
2022-08-21T06:03:12.340Z,33.50
2022-08-21T06:05:40.014Z,32.69
2022-08-21T06:08:07.199Z,33.17
2022-08-21T06:10:34.378Z,32.15
2022-08-21T06:13:01.755Z,32.16
2022-08-21T06:15:28.857Z,31.55
2022-08-21T06:17:56.275Z,31.49
2022-08-21T06:20:24.149Z,31.16
2022-08-21T06:22:51.351Z,30.88
2022-08-21T06:25:18.612Z,30.44
2022-08-21T06:27:46.092Z,29.89
2022-08-21T06:30:13.256Z,30.28
2022-08-21T06:32:40.992Z,29.22
2022-08-21T06:35:08.733Z,29.51
2022-08-21T06:37:35.917Z,28.89
2022-08-21T06:40:06.045Z,29.11
2022-08-21T06:42:39.713Z,28.25
2022-08-21T06:45:08.990Z,28.94
2022-08-21T06:47:35.939Z,27.78
2022-08-21T06:50:03.778Z,27.48
2022-08-21T06:52:30.957Z,27.57
2022-08-21T06:54:57.982Z,27.80
2022-08-21T06:57:26.267Z,27.24
2022-08-21T06:59:53.541Z,27.62
2022-08-21T07:02:20.538Z,26.48
2022-08-21T07:04:47.553Z,26.10
2022-08-21T07:07:14.652Z,26.23
2022-08-21T07:09:41.707Z,25.78
2022-08-21T07:12:09.738Z,26.93
2022-08-21T07:14:37.359Z,26.32
2022-08-21T07:17:04.595Z,25.50
2022-08-21T07:19:31.733Z,25.39
2022-08-21T07:22:02.475Z,25.64
2022-08-21T07:24:30.368Z,26.16
2022-08-21T07:26:57.583Z,24.47
2022-08-21T07:29:24.831Z,24.91
2022-08-21T07:31:52.090Z,24.57
2022-08-21T07:34:19.237Z,24.13
2022-08-21T07:36:47.202Z,23.77
2022-08-21T07:39:16.508Z,24.65
2022-08-21T07:41:43.725Z,23.78
2022-08-21T07:44:12.555Z,23.34
2022-08-21T07:46:39.998Z,23.62
2022-08-21T07:49:07.211Z,23.23
2022-08-21T07:51:34.917Z,23.36
2022-08-21T07:54:02.796Z,23.16
2022-08-21T07:56:32.244Z,22.85
2022-08-21T07:58:59.685Z,22.86
2022-08-21T08:01:27.056Z,23.46
2022-08-21T08:03:54.404Z,22.89
2022-08-21T08:06:21.725Z,22.94
2022-08-21T08:08:48.765Z,23.15
2022-08-21T08:11:19.260Z,22.58
2022-08-21T08:13:52.493Z,22.39
2022-08-21T08:16:20.801Z,21.93
2022-08-21T08:18:48.306Z,21.62
2022-08-21T08:21:16.250Z,21.41
2022-08-21T08:23:46.246Z,22.04
2022-08-21T08:26:13.670Z,21.46
2022-08-21T08:28:40.910Z,21.82
2022-08-21T08:31:08.053Z,21.54
2022-08-21T08:33:35.198Z,20.97
2022-08-21T08:36:07.055Z,21.07
2022-08-21T08:38:36.179Z,20.88
2022-08-21T08:41:14.029Z,20.07
2022-08-21T08:43:45.764Z,20.60
2022-08-21T08:46:16.878Z,20.21
2022-08-21T08:49:14.407Z,20.92
2022-08-21T08:51:56.426Z,19.52
2022-08-21T08:54:38.724Z,18.74
2022-08-21T08:57:15.766Z,19.44
2022-08-21T08:59:48.068Z,19.88
2022-08-21T09:02:16.532Z,19.24
2022-08-21T09:04:46.553Z,18.97
2022-08-21T09:07:41.094Z,19.57
2022-08-21T09:10:27.543Z,17.62
2022-08-21T09:13:17.097Z,18.83
2022-08-21T09:16:15.415Z,18.21
2022-08-21T09:19:09.296Z,18.07
2022-08-21T09:22:04.274Z,18.76
2022-08-21T09:24:50.037Z,18.48
2022-08-21T09:27:20.849Z,17.82
2022-08-21T09:29:51.981Z,18.34
2022-08-21T09:32:22.872Z,18.40
2022-08-21T09:35:07.245Z,18.28
2022-08-21T09:37:46.315Z,18.13
2022-08-21T09:40:35.406Z,17.76
2022-08-21T09:43:14.913Z,18.00
2022-08-21T09:45:43.757Z,17.91
2022-08-21T09:48:15.924Z,18.21
2022-08-21T09:50:44.365Z,18.89
2022-08-21T09:53:24.259Z,18.44
2022-08-21T09:56:19.236Z,17.81
2022-08-21T09:58:52.721Z,18.13
2022-08-21T10:01:23.048Z,18.14
2022-08-21T10:04:06.250Z,17.31
2022-08-21T10:06:35.938Z,17.93
2022-08-21T10:09:19.048Z,17.70
2022-08-21T10:12:11.334Z,18.32
2022-08-21T10:15:11.199Z,18.29
2022-08-21T10:17:40.797Z,17.93
2022-08-21T10:20:16.178Z,17.72
2022-08-21T10:22:50.589Z,17.79
2022-08-21T10:25:29.474Z,17.87
2022-08-21T10:28:13.050Z,17.13
2022-08-21T10:30:49.920Z,18.00
2022-08-21T10:33:40.056Z,16.87
2022-08-21T10:36:13.670Z,17.22
2022-08-21T10:39:23.413Z,16.88
2022-08-21T10:41:53.187Z,17.48
2022-08-21T10:44:40.647Z,17.66
2022-08-21T10:47:20.031Z,17.97
2022-08-21T10:50:04.212Z,18.08
2022-08-21T10:53:14.545Z,18.08
2022-08-21T10:56:02.521Z,17.72
2022-08-21T10:58:31.505Z,17.90
2022-08-21T11:01:21.507Z,18.70
2022-08-21T11:03:55.787Z,18.28
2022-08-21T11:06:26.699Z,18.17
2022-08-21T11:09:05.098Z,17.89
2022-08-21T11:12:10.882Z,18.32
2022-08-21T11:15:08.140Z,18.42
2022-08-21T11:18:17.582Z,18.29
2022-08-21T11:21:14.738Z,18.20
2022-08-21T11:23:50.219Z,18.24
2022-08-21T11:26:55.101Z,18.03
2022-08-21T11:29:30.748Z,18.32
2022-08-21T11:32:09.851Z,18.04
2022-08-21T11:34:41.568Z,17.31
2022-08-21T11:37:23.531Z,17.39
2022-08-21T11:40:19.874Z,18.16
2022-08-21T11:43:12.484Z,18.07
2022-08-21T11:45:39.512Z,17.95
2022-08-21T11:48:45.676Z,17.99
2022-08-21T11:51:20.030Z,18.13
2022-08-21T11:54:11.923Z,16.85
2022-08-21T11:56:45.162Z,17.92
2022-08-21T11:59:23.595Z,17.94
2022-08-21T12:01:53.759Z,17.84
2022-08-21T12:04:30.215Z,18.22
2022-08-21T12:06:58.355Z,18.12
2022-08-21T12:09:25.471Z,18.16
2022-08-21T12:12:07.853Z,18.30
2022-08-21T12:14:48.538Z,18.60
2022-08-21T12:17:37.547Z,18.49
2022-08-21T12:20:22.062Z,18.14
2022-08-21T12:23:05.773Z,17.67
2022-08-21T12:26:01.668Z,17.93
2022-08-21T12:28:31.445Z,18.20
2022-08-21T12:30:58.709Z,17.79
2022-08-21T12:33:28.497Z,18.07
2022-08-21T12:36:06.587Z,18.30
2022-08-21T12:38:44.551Z,17.97
2022-08-21T12:41:21.411Z,18.07
2022-08-21T12:43:53.117Z,18.62
2022-08-21T12:46:28.996Z,18.54
2022-08-21T12:49:01.753Z,18.97
2022-08-21T12:51:50.605Z,19.28
2022-08-21T12:54:29.663Z,18.98
2022-08-21T12:57:07.469Z,19.53
2022-08-21T12:59:39.861Z,19.47
2022-08-21T13:02:19.724Z,19.51
2022-08-21T13:04:49.114Z,19.17
2022-08-21T13:07:25.797Z,19.39
2022-08-21T13:09:59.495Z,19.49
2022-08-21T13:12:32.275Z,19.85
2022-08-21T13:15:09.163Z,19.96
2022-08-21T13:17:40.625Z,20.53
2022-08-21T13:20:11.668Z,20.15
2022-08-21T13:22:45.778Z,19.58
2022-08-21T13:25:19.432Z,19.86
2022-08-21T13:28:08.025Z,19.44
2022-08-21T13:30:35.149Z,20.11
2022-08-21T13:33:12.425Z,20.08
2022-08-21T13:36:10.959Z,19.83
2022-08-21T13:38:41.397Z,19.89
2022-08-21T13:41:17.872Z,19.99
2022-08-21T13:43:59.347Z,19.92
2022-08-21T13:46:32.627Z,20.62
2022-08-21T13:49:01.526Z,20.67
2022-08-21T13:51:29.347Z,20.65
2022-08-21T13:53:56.974Z,20.71
2022-08-21T13:56:26.814Z,20.81
2022-08-21T13:58:56.142Z,20.94
2022-08-21T14:01:31.622Z,20.63
2022-08-21T14:04:04.698Z,21.08
2022-08-21T14:06:37.222Z,20.64
2022-08-21T14:09:14.319Z,21.26
2022-08-21T14:11:41.725Z,21.20
2022-08-21T14:14:25.840Z,21.12
2022-08-21T14:17:23.329Z,21.08
2022-08-21T14:19:49.962Z,21.27
2022-08-21T14:22:49.898Z,21.60
2022-08-21T14:25:32.154Z,21.73
2022-08-21T14:28:27.212Z,21.29
2022-08-21T14:30:57.842Z,21.55
2022-08-21T14:33:30.726Z,21.76
2022-08-21T14:35:58.166Z,21.72
2022-08-21T14:38:27.843Z,22.06
2022-08-21T14:41:01.541Z,22.32
2022-08-21T14:43:29.443Z,22.10
2022-08-21T14:45:57.405Z,22.10
2022-08-21T14:48:25.501Z,22.09
2022-08-21T14:50:57.080Z,22.10
2022-08-21T14:53:26.860Z,22.00
2022-08-21T14:56:06.870Z,22.03
2022-08-21T14:58:37.236Z,22.25
2022-08-21T15:01:07.648Z,22.14
2022-08-21T15:03:35.519Z,21.96
2022-08-21T15:06:04.682Z,22.48
2022-08-21T15:08:33.654Z,22.18
2022-08-21T15:11:42.481Z,22.36
2022-08-21T15:13:56.751Z,22.42
2022-08-21T15:16:24.638Z,22.68
2022-08-21T15:18:51.780Z,22.06
2022-08-21T15:21:19.221Z,22.37
2022-08-21T15:23:48.017Z,22.59
2022-08-21T15:26:15.227Z,22.80
2022-08-21T15:28:42.522Z,22.99
2022-08-21T15:31:10.019Z,23.10
2022-08-21T15:33:37.023Z,23.50
2022-08-21T15:36:04.437Z,22.73
2022-08-21T15:38:31.969Z,24.08
2022-08-21T15:40:59.072Z,22.98
2022-08-21T15:43:42.332Z,23.30
2022-08-21T15:46:13.376Z,22.90
2022-08-21T15:48:40.781Z,23.49
2022-08-21T15:51:12.013Z,23.64
2022-08-21T15:53:41.147Z,23.22
2022-08-21T15:56:19.023Z,23.21
2022-08-21T15:58:46.484Z,23.59
2022-08-21T16:01:13.797Z,24.36
2022-08-21T16:03:40.990Z,24.27
2022-08-21T16:06:08.381Z,23.62
2022-08-21T16:08:35.718Z,23.07
2022-08-21T16:11:02.926Z,23.38
2022-08-21T16:13:39.375Z,23.50
2022-08-21T16:16:08.426Z,23.39
2022-08-21T16:18:35.562Z,23.93
2022-08-21T16:21:02.739Z,23.29
2022-08-21T16:23:29.998Z,23.68
2022-08-21T16:26:00.136Z,23.82
2022-08-21T16:28:27.534Z,23.62
2022-08-21T16:30:54.696Z,23.83
2022-08-21T16:33:21.817Z,24.00
2022-08-21T16:35:49.097Z,24.16
2022-08-21T16:38:16.232Z,24.22
2022-08-21T16:40:43.646Z,24.11
2022-08-21T16:43:11.239Z,23.83
2022-08-21T16:45:39.536Z,24.40
2022-08-21T16:48:09.960Z,24.12
2022-08-21T16:50:38.240Z,24.53
2022-08-21T16:53:07.259Z,24.46
2022-08-21T16:55:38.584Z,24.37
2022-08-21T16:58:11.678Z,25.05
2022-08-21T17:00:38.881Z,24.54
2022-08-21T17:03:06.660Z,24.50
2022-08-21T17:05:34.023Z,24.68
2022-08-21T17:08:01.164Z,24.68
2022-08-21T17:10:28.643Z,24.82
2022-08-21T17:12:58.647Z,24.86
2022-08-21T17:15:30.071Z,24.40
2022-08-21T17:17:57.800Z,24.79
2022-08-21T17:20:26.362Z,24.84
2022-08-21T17:22:54.210Z,25.16
2022-08-21T17:25:21.257Z,24.73
2022-08-21T17:27:49.807Z,24.77
2022-08-21T17:30:17.586Z,25.02
2022-08-21T17:32:47.248Z,25.21
2022-08-21T17:35:14.770Z,25.48
2022-08-21T17:37:42.226Z,25.18
2022-08-21T17:40:13.317Z,25.51
2022-08-21T17:42:42.957Z,25.31
2022-08-21T17:45:13.318Z,25.60
2022-08-21T17:47:40.663Z,25.66
2022-08-21T17:50:09.948Z,26.58
2022-08-21T17:52:37.585Z,26.43
2022-08-21T17:55:05.368Z,25.97
2022-08-21T17:57:36.586Z,26.64
2022-08-21T18:00:08.745Z,25.79
2022-08-21T18:02:41.130Z,26.07
2022-08-21T18:05:13.450Z,25.59
2022-08-21T18:07:41.778Z,26.36
2022-08-21T18:10:11.759Z,25.98
2022-08-21T18:12:43.657Z,25.51
2022-08-21T18:15:14.211Z,26.80
2022-08-21T18:17:45.595Z,25.72
2022-08-21T18:20:16.323Z,25.46
2022-08-21T18:22:43.613Z,26.03
2022-08-21T18:25:11.314Z,26.09
2022-08-21T18:27:39.294Z,26.15
2022-08-21T18:30:08.147Z,25.92
2022-08-21T18:32:35.344Z,25.55
2022-08-21T18:35:03.111Z,25.65
2022-08-21T18:37:31.303Z,26.13
2022-08-21T18:39:59.713Z,25.77
2022-08-21T18:42:29.453Z,26.25
2022-08-21T18:45:02.257Z,25.95
2022-08-21T18:47:40.643Z,26.00
2022-08-21T18:50:10.670Z,25.98
2022-08-21T18:52:41.831Z,25.75
2022-08-21T18:55:21.518Z,25.83
2022-08-21T18:57:49.215Z,26.35
2022-08-21T19:00:21.893Z,27.01
2022-08-21T19:02:49.663Z,26.06
2022-08-21T19:05:19.130Z,26.65
2022-08-21T19:07:47.361Z,27.19
2022-08-21T19:10:27.715Z,26.50
2022-08-21T19:12:59.690Z,27.24
2022-08-21T19:15:28.814Z,26.25
2022-08-21T19:17:58.559Z,27.80
2022-08-21T19:20:30.536Z,27.01
2022-08-21T19:22:58.552Z,26.77
2022-08-21T19:25:33.966Z,26.29
2022-08-21T19:28:36.530Z,26.91
2022-08-21T19:31:13.045Z,27.21
2022-08-21T19:36:36.105Z,27.94
2022-08-21T19:39:08.381Z,27.49
2022-08-21T19:41:38.921Z,27.45
2022-08-21T19:44:10.097Z,27.44
2022-08-21T19:46:40.459Z,27.66
2022-08-21T19:49:12.220Z,27.13
2022-08-21T19:51:40.257Z,27.12
2022-08-21T19:54:15.884Z,28.04
2022-08-21T19:56:45.422Z,28.49
2022-08-21T19:59:24.932Z,28.51
2022-08-21T20:01:52.358Z,28.83
2022-08-21T20:04:19.760Z,29.32
2022-08-21T20:06:47.859Z,28.95
2022-08-21T20:09:17.371Z,29.72
2022-08-21T20:11:54.261Z,28.73
2022-08-21T20:14:26.793Z,29.58
2022-08-21T20:17:12.574Z,29.42
2022-08-21T20:19:42.533Z,29.73
2022-08-21T20:22:10.559Z,29.73
2022-08-21T20:24:38.138Z,29.71
2022-08-21T20:27:06.317Z,30.26
2022-08-21T20:32:22.965Z,30.82
2022-08-21T20:34:51.776Z,30.09
2022-08-21T20:37:22.403Z,30.09
2022-08-21T20:40:11.164Z,30.12
2022-08-21T20:42:44.936Z,30.40
2022-08-21T20:45:18.562Z,30.70
2022-08-21T20:47:45.805Z,30.76
2022-08-21T20:50:18.131Z,30.83
2022-08-21T20:52:52.481Z,30.89
2022-08-21T20:55:29.275Z,31.04
2022-08-21T20:58:12.521Z,30.33
2022-08-21T21:00:43.576Z,31.17
2022-08-21T21:03:21.286Z,31.35
2022-08-21T21:06:11.669Z,31.23
2022-08-21T21:08:57.571Z,31.29
2022-08-21T21:11:39.568Z,31.42
2022-08-21T21:14:18.107Z,31.76
2022-08-21T21:16:51.725Z,31.65
2022-08-21T21:19:40.556Z,31.65
2022-08-21T21:22:16.008Z,31.78
2022-08-21T21:25:09.820Z,31.95
2022-08-21T21:27:50.949Z,32.12
2022-08-21T21:30:57.900Z,32.54
2022-08-21T21:33:25.446Z,32.49
2022-08-21T21:36:00.202Z,32.55
2022-08-21T21:38:51.795Z,32.66
2022-08-21T21:41:34.913Z,32.53
2022-08-21T21:44:14.831Z,32.93
2022-08-21T21:47:03.618Z,32.77
2022-08-21T21:49:55.533Z,33.06
2022-08-21T21:52:54.738Z,33.12
2022-08-21T21:55:34.096Z,33.03
2022-08-21T21:58:03.989Z,33.01
2022-08-21T22:00:34.467Z,33.25
2022-08-21T22:03:29.507Z,33.14
2022-08-21T22:06:07.579Z,33.13
2022-08-21T22:09:10.862Z,33.14
2022-08-21T22:11:41.259Z,33.86
2022-08-21T22:14:31.793Z,34.55
2022-08-21T22:17:05.239Z,34.35
2022-08-21T22:19:39.969Z,34.04
2022-08-21T22:22:19.090Z,34.01
2022-08-21T22:24:50.491Z,34.06
2022-08-21T22:27:31.079Z,34.23
2022-08-21T22:30:01.151Z,34.31
2022-08-21T22:32:39.221Z,34.11
2022-08-21T22:35:21.743Z,33.90
2022-08-21T22:37:56.004Z,34.20
2022-08-21T22:40:36.570Z,34.52
2022-08-21T22:43:07.844Z,34.36
2022-08-21T22:45:59.198Z,34.22
2022-08-21T22:48:39.140Z,34.42
2022-08-21T22:51:32.453Z,34.36
2022-08-21T22:54:00.331Z,34.61
2022-08-21T22:56:55.333Z,34.51
2022-08-21T22:59:30.401Z,34.53
2022-08-21T23:02:04.957Z,34.87
2022-08-21T23:04:33.784Z,35.22
2022-08-21T23:07:06.091Z,34.80
2022-08-21T23:10:00.030Z,34.88
2022-08-21T23:12:36.142Z,35.09
2022-08-21T23:18:21.449Z,34.99
2022-08-21T23:20:57.867Z,34.60
2022-08-21T23:23:29.387Z,35.16
2022-08-21T23:29:35.244Z,35.07
2022-08-21T23:32:26.535Z,35.36
2022-08-21T23:35:02.402Z,35.38
2022-08-21T23:37:51.605Z,35.52
2022-08-21T23:40:36.440Z,35.16
2022-08-21T23:43:26.788Z,35.70
2022-08-21T23:46:18.467Z,35.72
2022-08-21T23:48:59.145Z,35.27
2022-08-21T23:51:41.222Z,34.98
2022-08-21T23:54:32.611Z,35.35
2022-08-21T23:57:08.869Z,35.50
